createdAt,value
2023-01-13T00:00:09.221Z,73.12
2023-01-13T00:03:15.919Z,73.39
2023-01-13T00:06:02.378Z,72.97
2023-01-13T00:08:50.155Z,72.86
2023-01-13T00:11:36.939Z,72.95
2023-01-13T00:14:23.746Z,73.04
2023-01-13T00:17:10.400Z,73.11
2023-01-13T00:19:57.065Z,72.89
2023-01-13T00:22:43.636Z,72.85
2023-01-13T00:25:29.806Z,72.73
2023-01-13T00:28:15.977Z,72.80
2023-01-13T00:31:10.328Z,72.76
2023-01-13T00:33:58.191Z,72.90
2023-01-13T00:36:45.055Z,72.76
2023-01-13T00:39:31.486Z,72.78
2023-01-13T00:42:37.757Z,72.78
2023-01-13T00:45:24.264Z,73.03
2023-01-13T00:48:10.865Z,73.19
2023-01-13T00:51:02.869Z,73.37
2023-01-13T00:53:51.687Z,74.14
2023-01-13T00:56:40.501Z,74.53
2023-01-13T00:59:27.286Z,74.68
2023-01-13T01:02:13.763Z,74.66
2023-01-13T01:05:01.068Z,75.08
2023-01-13T01:07:47.170Z,74.98
2023-01-13T01:10:33.373Z,75.00
2023-01-13T01:13:20.018Z,75.09
2023-01-13T01:16:09.595Z,75.17
2023-01-13T01:18:56.778Z,75.15
2023-01-13T01:21:43.436Z,75.26
2023-01-13T01:24:29.990Z,75.20
2023-01-13T01:27:16.600Z,75.08
2023-01-13T01:30:02.743Z,75.05
2023-01-13T01:32:48.964Z,74.62
2023-01-13T01:35:39.731Z,74.85
2023-01-13T01:38:26.041Z,74.52
2023-01-13T01:41:15.587Z,74.59
2023-01-13T01:44:10.364Z,74.56
2023-01-13T01:46:56.958Z,74.75
2023-01-13T01:49:44.938Z,74.65
2023-01-13T01:52:35.943Z,74.51
2023-01-13T01:55:23.320Z,74.50
2023-01-13T01:58:13.602Z,74.51
2023-01-13T02:01:00.214Z,74.23
2023-01-13T02:03:52.845Z,73.98
2023-01-13T02:06:39.503Z,73.69
2023-01-13T02:09:26.993Z,73.51
2023-01-13T02:12:32.036Z,73.26
2023-01-13T02:15:22.223Z,73.07
2023-01-13T02:18:33.203Z,72.89
2023-01-13T02:21:47.596Z,72.86
2023-01-13T02:25:00.134Z,72.61
2023-01-13T02:27:52.735Z,73.01
2023-01-13T02:31:08.440Z,72.67
2023-01-13T02:34:07.757Z,72.85
2023-01-13T02:37:02.508Z,72.70
2023-01-13T02:39:55.883Z,72.42
2023-01-13T02:43:35.699Z,72.39
2023-01-13T02:46:27.906Z,72.76
2023-01-13T02:49:45.463Z,72.56
2023-01-13T02:52:36.432Z,72.56
2023-01-13T02:55:27.068Z,72.47
2023-01-13T02:58:16.989Z,72.28
2023-01-13T03:01:03.675Z,72.20
2023-01-13T03:03:50.218Z,72.65
2023-01-13T03:06:42.460Z,73.08
2023-01-13T03:09:39.858Z,73.79
2023-01-13T03:12:35.208Z,74.78
2023-01-13T03:15:37.034Z,75.66
2023-01-13T03:18:35.607Z,75.58
2023-01-13T03:21:28.593Z,75.71
2023-01-13T03:24:21.342Z,75.69
2023-01-13T03:27:14.659Z,75.64
2023-01-13T03:30:03.766Z,75.28
2023-01-13T03:32:53.922Z,74.77
2023-01-13T03:35:42.598Z,74.54
2023-01-13T03:38:35.128Z,74.33
2023-01-13T03:41:37.087Z,74.16
2023-01-13T03:44:32.934Z,73.67
2023-01-13T03:47:22.578Z,73.63
2023-01-13T03:50:18.773Z,73.61
2023-01-13T03:53:10.856Z,73.14
2023-01-13T03:56:10.020Z,72.88
2023-01-13T03:58:57.818Z,73.07
2023-01-13T04:01:49.022Z,73.06
2023-01-13T04:04:52.320Z,73.07
2023-01-13T04:08:03.634Z,73.24
2023-01-13T04:11:02.157Z,73.34
2023-01-13T04:13:49.075Z,73.02
2023-01-13T04:16:37.807Z,73.11
2023-01-13T04:19:23.966Z,73.20
2023-01-13T04:22:10.347Z,72.93
2023-01-13T04:24:57.067Z,72.98
2023-01-13T04:27:43.104Z,72.65
2023-01-13T04:30:29.400Z,72.89
2023-01-13T04:33:17.042Z,72.83
2023-01-13T04:36:03.316Z,72.87
2023-01-13T04:38:50.659Z,72.86
2023-01-13T04:41:55.475Z,72.79
2023-01-13T04:44:41.834Z,72.95
2023-01-13T04:47:28.393Z,72.93
2023-01-13T04:50:15.099Z,72.88
2023-01-13T04:53:01.815Z,72.77
2023-01-13T04:55:49.689Z,73.25
2023-01-13T04:58:35.714Z,73.22
2023-01-13T05:01:22.287Z,73.26
2023-01-13T05:04:11.304Z,73.32
2023-01-13T05:06:58.792Z,73.10
2023-01-13T05:09:45.427Z,73.04
2023-01-13T05:12:50.291Z,72.92
2023-01-13T05:15:55.089Z,72.99
2023-01-13T05:18:41.392Z,73.05
2023-01-13T05:21:46.296Z,73.01
2023-01-13T05:24:51.307Z,72.84
2023-01-13T05:27:37.634Z,72.94
2023-01-13T05:30:26.533Z,72.73
2023-01-13T05:33:15.441Z,72.48
2023-01-13T05:36:02.881Z,72.40
2023-01-13T05:38:51.506Z,72.35
2023-01-13T05:41:55.939Z,72.28
2023-01-13T05:44:42.084Z,72.10
2023-01-13T05:47:28.617Z,71.84
2023-01-13T05:50:16.089Z,71.95
2023-01-13T05:53:02.739Z,72.08
2023-01-13T05:55:49.469Z,72.16
2023-01-13T05:58:35.741Z,72.01
2023-01-13T06:01:21.914Z,71.87
2023-01-13T06:04:08.061Z,72.21
2023-01-13T06:06:56.004Z,72.00
2023-01-13T06:09:42.377Z,72.20
2023-01-13T06:12:28.883Z,72.17
2023-01-13T06:15:15.087Z,72.20
2023-01-13T06:18:03.102Z,72.11
2023-01-13T06:20:49.597Z,71.80
2023-01-13T06:23:38.627Z,71.64
2023-01-13T06:26:25.195Z,71.72
2023-01-13T06:29:14.951Z,71.64
2023-01-13T06:32:07.371Z,71.58
2023-01-13T06:34:59.961Z,71.62
2023-01-13T06:37:50.718Z,71.73
2023-01-13T06:40:37.446Z,71.60
2023-01-13T06:43:23.970Z,71.26
2023-01-13T06:46:10.601Z,71.43
2023-01-13T06:48:56.917Z,71.08
2023-01-13T06:51:43.081Z,71.00
2023-01-13T06:54:29.672Z,71.03
2023-01-13T06:57:16.190Z,71.21
2023-01-13T07:00:02.455Z,71.39
2023-01-13T07:02:49.122Z,71.67
2023-01-13T07:05:35.628Z,71.49
2023-01-13T07:08:23.310Z,71.83
2023-01-13T07:11:09.607Z,71.95
2023-01-13T07:14:14.390Z,72.12
2023-01-13T07:17:01.068Z,71.95
2023-01-13T07:19:47.162Z,72.00
2023-01-13T07:22:33.236Z,72.04
2023-01-13T07:25:19.639Z,71.91
2023-01-13T07:28:06.108Z,72.49
2023-01-13T07:30:52.844Z,72.52
2023-01-13T07:33:39.302Z,72.18
2023-01-13T07:36:25.698Z,72.37
2023-01-13T07:39:12.275Z,72.52
2023-01-13T07:42:17.019Z,72.52
2023-01-13T07:45:03.863Z,72.35
2023-01-13T07:47:52.575Z,72.09
2023-01-13T07:50:39.221Z,71.80
2023-01-13T07:53:26.040Z,71.64
2023-01-13T07:56:12.217Z,71.71
2023-01-13T07:59:01.281Z,71.72
2023-01-13T08:01:47.549Z,71.46
2023-01-13T08:04:34.172Z,71.81
2023-01-13T08:07:20.405Z,71.66
2023-01-13T08:10:07.568Z,71.32
2023-01-13T08:13:12.593Z,71.51
2023-01-13T08:16:01.610Z,71.48
2023-01-13T08:18:47.935Z,71.41
2023-01-13T08:21:34.337Z,71.03
2023-01-13T08:24:20.957Z,71.02
2023-01-13T08:27:07.310Z,71.11
2023-01-13T08:29:53.719Z,71.10
2023-01-13T08:32:40.318Z,71.32
2023-01-13T08:35:26.675Z,71.35
2023-01-13T08:38:12.658Z,71.54
2023-01-13T08:40:59.328Z,71.54
2023-01-13T08:43:45.407Z,71.44
2023-01-13T08:46:31.783Z,71.69
2023-01-13T08:49:18.698Z,71.93
2023-01-13T08:52:05.647Z,71.96
2023-01-13T08:54:52.105Z,72.18
2023-01-13T08:57:38.798Z,71.98
2023-01-13T09:00:25.164Z,72.20
2023-01-13T09:03:11.324Z,71.85
2023-01-13T09:05:57.665Z,72.30
2023-01-13T09:08:44.494Z,72.54
2023-01-13T09:11:54.457Z,72.76
2023-01-13T09:14:40.580Z,72.77
2023-01-13T09:17:27.551Z,72.71
2023-01-13T09:20:14.090Z,72.40
2023-01-13T09:23:00.567Z,72.42
2023-01-13T09:25:47.141Z,72.00
2023-01-13T09:28:33.563Z,71.94
2023-01-13T09:31:20.293Z,71.99
2023-01-13T09:34:25.953Z,71.44
2023-01-13T09:37:12.290Z,70.81
2023-01-13T09:39:58.669Z,70.50
2023-01-13T09:43:13.925Z,70.31
2023-01-13T09:46:05.589Z,70.45
2023-01-13T09:48:57.270Z,70.32
2023-01-13T09:51:49.375Z,70.82
2023-01-13T09:54:43.416Z,71.39
2023-01-13T09:57:33.908Z,71.11
2023-01-13T10:00:26.504Z,70.54
2023-01-13T10:03:25.744Z,70.34
2023-01-13T10:06:24.737Z,69.74
2023-01-13T10:09:19.761Z,69.46
2023-01-13T10:12:32.971Z,69.47
2023-01-13T10:15:20.531Z,69.36
2023-01-13T10:18:19.288Z,69.13
2023-01-13T10:21:27.130Z,68.76
2023-01-13T10:24:33.050Z,68.78
2023-01-13T10:27:28.048Z,68.09
2023-01-13T10:30:17.470Z,67.95
2023-01-13T10:33:10.074Z,68.25
2023-01-13T10:36:02.496Z,68.08
2023-01-13T10:38:50.580Z,67.67
2023-01-13T10:41:36.976Z,67.40
2023-01-13T10:44:23.228Z,67.05
2023-01-13T10:47:20.525Z,67.23
2023-01-13T10:50:12.460Z,66.96
2023-01-13T10:53:15.178Z,67.02
2023-01-13T10:56:03.702Z,66.95
2023-01-13T10:58:50.514Z,66.84
2023-01-13T11:01:38.012Z,66.40
2023-01-13T11:04:32.159Z,66.18
2023-01-13T11:07:36.662Z,66.50
2023-01-13T11:10:28.360Z,66.67
2023-01-13T11:13:23.704Z,66.64
2023-01-13T11:16:14.754Z,66.44
2023-01-13T11:19:14.170Z,66.82
2023-01-13T11:22:16.163Z,66.80
2023-01-13T11:25:04.183Z,66.82
2023-01-13T11:27:56.347Z,66.50
2023-01-13T11:30:53.223Z,65.89
2023-01-13T11:33:51.681Z,65.70
2023-01-13T11:36:40.746Z,65.78
2023-01-13T11:39:56.283Z,65.77
2023-01-13T11:42:54.186Z,65.44
2023-01-13T11:45:51.043Z,65.48
2023-01-13T11:48:41.535Z,65.62
2023-01-13T11:51:27.765Z,65.92
2023-01-13T11:54:59.134Z,66.24
2023-01-13T11:58:23.592Z,66.16
2023-01-13T12:01:25.158Z,66.34
2023-01-13T12:04:44.805Z,66.36
2023-01-13T12:07:36.655Z,66.38
2023-01-13T12:10:49.369Z,66.36
2023-01-13T12:14:24.965Z,66.62
2023-01-13T12:17:23.458Z,66.54
2023-01-13T12:20:22.872Z,66.74
2023-01-13T12:23:36.133Z,66.27
2023-01-13T12:26:22.371Z,66.43
2023-01-13T12:29:19.676Z,66.44
2023-01-13T12:32:10.585Z,66.40
2023-01-13T12:35:05.192Z,66.54
2023-01-13T12:38:00.005Z,66.60
2023-01-13T12:40:52.609Z,65.64
2023-01-13T12:44:03.818Z,64.86
2023-01-13T12:46:56.204Z,64.11
2023-01-13T12:49:45.909Z,64.85
2023-01-13T12:52:44.057Z,64.39
2023-01-13T12:55:34.641Z,64.40
2023-01-13T12:58:28.698Z,64.38
2023-01-13T13:01:15.414Z,64.32
2023-01-13T13:04:11.295Z,64.32
2023-01-13T13:07:12.438Z,64.24
2023-01-13T13:10:02.456Z,64.55
2023-01-13T13:13:11.342Z,64.70
2023-01-13T13:16:26.794Z,64.69
2023-01-13T13:19:20.048Z,65.40
2023-01-13T13:22:11.903Z,65.41
2023-01-13T13:25:03.934Z,65.91
2023-01-13T13:28:00.410Z,66.08
2023-01-13T13:30:53.089Z,66.14
2023-01-13T13:33:52.841Z,66.34
2023-01-13T13:37:11.474Z,66.09
2023-01-13T13:40:16.146Z,65.80
2023-01-13T13:43:22.013Z,66.12
2023-01-13T13:46:46.877Z,66.49
2023-01-13T13:49:41.914Z,66.56
2023-01-13T13:52:42.938Z,66.73
2023-01-13T13:55:29.948Z,66.84
2023-01-13T13:58:17.625Z,67.23
2023-01-13T14:01:04.246Z,67.10
2023-01-13T14:04:04.168Z,67.31
2023-01-13T14:06:51.495Z,68.42
2023-01-13T14:09:44.743Z,69.29
2023-01-13T14:12:38.026Z,71.18
2023-01-13T14:15:34.274Z,72.89
2023-01-13T14:18:21.696Z,73.09
2023-01-13T14:21:26.840Z,74.54
2023-01-13T14:24:17.548Z,75.19
2023-01-13T14:27:14.141Z,75.38
2023-01-13T14:30:00.932Z,75.84
2023-01-13T14:32:47.274Z,76.31
2023-01-13T14:35:33.463Z,77.17
2023-01-13T14:38:20.177Z,77.53
2023-01-13T14:41:17.144Z,78.11
2023-01-13T14:44:14.358Z,78.61
2023-01-13T14:47:16.328Z,78.16
2023-01-13T14:50:11.809Z,78.04
2023-01-13T14:53:00.749Z,78.12
2023-01-13T14:55:47.157Z,78.21
2023-01-13T14:58:33.759Z,77.93
2023-01-13T15:01:36.591Z,78.43
2023-01-13T15:04:34.024Z,78.89
2023-01-13T15:07:25.578Z,79.26
2023-01-13T15:10:14.514Z,79.38
2023-01-13T15:13:03.969Z,79.34
2023-01-13T15:15:52.352Z,79.58
2023-01-13T15:18:40.864Z,79.68
2023-01-13T15:21:27.141Z,79.67
2023-01-13T15:24:13.670Z,79.79
2023-01-13T15:27:00.394Z,80.14
2023-01-13T15:29:47.045Z,79.78
2023-01-13T15:32:33.497Z,79.54
2023-01-13T15:35:20.662Z,79.12
2023-01-13T15:38:12.088Z,78.04
2023-01-13T15:40:58.430Z,77.47
2023-01-13T15:44:03.138Z,76.94
2023-01-13T15:46:49.816Z,77.03
2023-01-13T15:49:41.402Z,77.15
2023-01-13T15:52:28.091Z,77.22
2023-01-13T15:55:14.173Z,77.31
2023-01-13T15:58:02.169Z,77.33
2023-01-13T16:00:48.799Z,77.36
2023-01-13T16:03:34.942Z,77.50
2023-01-13T16:06:27.711Z,77.48
2023-01-13T16:09:14.496Z,77.60
2023-01-13T16:12:00.633Z,77.51
2023-01-13T16:14:47.213Z,77.56
2023-01-13T16:17:35.352Z,77.69
2023-01-13T16:20:22.255Z,77.72
2023-01-13T16:23:08.661Z,77.74
2023-01-13T16:25:54.814Z,77.86
2023-01-13T16:28:41.223Z,77.92
2023-01-13T16:31:31.848Z,78.01
2023-01-13T16:34:19.008Z,77.88
2023-01-13T16:37:09.467Z,77.77
2023-01-13T16:39:55.843Z,77.18
2023-01-13T16:42:42.520Z,76.70
2023-01-13T16:45:29.143Z,76.79
2023-01-13T16:48:19.808Z,76.88
2023-01-13T16:51:06.239Z,77.45
2023-01-13T16:53:52.489Z,77.68
2023-01-13T16:56:38.955Z,77.62
2023-01-13T16:59:25.506Z,77.80
2023-01-13T17:02:16.353Z,78.58
2023-01-13T17:05:02.915Z,78.74
2023-01-13T17:07:49.145Z,78.82
2023-01-13T17:10:35.730Z,78.97
2023-01-13T17:13:22.367Z,79.11
2023-01-13T17:16:17.180Z,78.45
2023-01-13T17:19:03.657Z,78.74
2023-01-13T17:21:51.192Z,79.04
2023-01-13T17:24:37.801Z,78.72
2023-01-13T17:27:24.132Z,79.19
2023-01-13T17:30:12.145Z,78.92
2023-01-13T17:35:27.435Z,78.57
2023-01-13T17:39:37.191Z,78.36
2023-01-13T17:42:25.143Z,79.14
2023-01-13T17:45:12.427Z,78.89
2023-01-13T17:47:59.816Z,78.83
2023-01-13T17:50:51.305Z,78.88
2023-01-13T17:53:40.967Z,79.24
2023-01-13T17:56:27.707Z,79.10
2023-01-13T17:59:16.244Z,79.34
2023-01-13T18:02:03.104Z,79.11
2023-01-13T18:04:49.669Z,79.16
2023-01-13T18:07:36.459Z,78.93
2023-01-13T18:10:23.364Z,79.12
2023-01-13T18:13:10.019Z,78.90
2023-01-13T18:16:11.640Z,79.09
2023-01-13T18:19:19.234Z,78.86
2023-01-13T18:22:24.873Z,79.06
2023-01-13T18:25:31.619Z,79.77
2023-01-13T18:28:18.653Z,79.98
2023-01-13T18:31:05.407Z,79.63
2023-01-13T18:33:52.900Z,79.93
2023-01-13T18:36:39.208Z,80.69
2023-01-13T18:39:25.822Z,80.36
2023-01-13T18:42:31.266Z,80.61
2023-01-13T18:45:20.401Z,80.33
2023-01-13T18:48:06.963Z,79.80
2023-01-13T18:50:53.777Z,79.81
2023-01-13T18:53:40.753Z,79.81
2023-01-13T18:56:27.460Z,79.92
2023-01-13T18:59:14.455Z,79.42
2023-01-13T19:02:02.139Z,79.80
2023-01-13T19:04:49.224Z,80.25
2023-01-13T19:07:36.505Z,79.98
2023-01-13T19:10:23.838Z,80.09
2023-01-13T19:13:10.381Z,79.65
2023-01-13T19:15:56.903Z,79.71
2023-01-13T19:18:44.006Z,80.04
2023-01-13T19:21:30.807Z,80.04
2023-01-13T19:24:17.417Z,80.41
2023-01-13T19:27:04.225Z,80.19
2023-01-13T19:29:52.763Z,79.92
2023-01-13T19:32:39.735Z,79.60
2023-01-13T19:35:26.243Z,79.66
2023-01-13T19:38:12.950Z,79.97
2023-01-13T19:41:03.536Z,79.94
2023-01-13T19:44:08.853Z,79.78
2023-01-13T19:46:57.001Z,79.76
2023-01-13T19:49:43.981Z,80.63
2023-01-13T19:52:30.973Z,81.29
2023-01-13T19:55:19.820Z,81.10
2023-01-13T19:58:08.265Z,81.29
2023-01-13T20:00:55.688Z,81.74
2023-01-13T20:03:44.195Z,82.40
2023-01-13T20:06:32.640Z,82.53
2023-01-13T20:09:19.149Z,82.21
2023-01-13T20:12:12.572Z,82.47
2023-01-13T20:14:58.686Z,82.39
2023-01-13T20:17:45.495Z,82.65
2023-01-13T20:20:31.955Z,82.54
2023-01-13T20:23:18.447Z,82.12
2023-01-13T20:26:07.743Z,82.10
2023-01-13T20:28:53.860Z,82.27
2023-01-13T20:31:40.653Z,82.32
2023-01-13T20:34:27.867Z,82.12
2023-01-13T20:37:14.370Z,81.72
2023-01-13T20:40:01.891Z,81.47
2023-01-13T20:42:48.521Z,81.34
2023-01-13T20:45:35.240Z,81.19
2023-01-13T20:48:21.471Z,80.93
2023-01-13T20:51:07.845Z,80.65
2023-01-13T20:53:57.121Z,80.66
2023-01-13T20:56:44.176Z,80.28
2023-01-13T20:59:31.413Z,80.32
2023-01-13T21:02:18.010Z,79.74
2023-01-13T21:05:04.570Z,79.21
2023-01-13T21:07:51.155Z,78.36
2023-01-13T21:10:37.631Z,77.73
2023-01-13T21:13:42.922Z,76.79
2023-01-13T21:16:29.284Z,76.61
2023-01-13T21:19:15.942Z,75.93
2023-01-13T21:22:04.011Z,76.19
2023-01-13T21:24:50.708Z,76.34
2023-01-13T21:27:37.474Z,75.55
2023-01-13T21:30:23.762Z,75.65
2023-01-13T21:33:13.810Z,75.93
2023-01-13T21:36:07.365Z,75.95
2023-01-13T21:38:58.888Z,75.58
2023-01-13T21:42:04.122Z,75.58
2023-01-13T21:45:08.656Z,75.94
2023-01-13T21:47:56.013Z,75.86
2023-01-13T21:50:42.368Z,75.99
2023-01-13T21:53:28.972Z,76.06
2023-01-13T21:56:15.692Z,76.60
2023-01-13T21:59:02.295Z,76.41
2023-01-13T22:02:23.199Z,76.35
2023-01-13T22:04:55.278Z,75.93
2023-01-13T22:07:41.593Z,76.07
2023-01-13T22:10:30.141Z,76.29
2023-01-13T22:13:34.637Z,76.37
2023-01-13T22:16:21.017Z,76.54
2023-01-13T22:19:08.614Z,75.87
2023-01-13T22:21:55.429Z,75.63
2023-01-13T22:24:43.535Z,75.72
2023-01-13T22:27:30.844Z,75.65
2023-01-13T22:30:21.752Z,75.91
2023-01-13T22:33:08.273Z,75.63
2023-01-13T22:35:55.635Z,75.84
2023-01-13T22:38:41.823Z,75.09
2023-01-13T22:41:27.991Z,75.08
2023-01-13T22:44:14.010Z,75.29
2023-01-13T22:47:00.536Z,75.38
2023-01-13T22:49:49.599Z,75.35
2023-01-13T22:52:35.947Z,75.79
2023-01-13T22:55:22.478Z,76.01
2023-01-13T22:58:09.206Z,76.14
2023-01-13T23:00:56.056Z,76.49
2023-01-13T23:03:45.460Z,76.61
2023-01-13T23:06:33.404Z,76.70
2023-01-13T23:09:20.212Z,76.93
2023-01-13T23:12:06.747Z,77.00
2023-01-13T23:14:53.523Z,76.86
2023-01-13T23:17:40.159Z,77.07
2023-01-13T23:20:26.519Z,77.10
2023-01-13T23:23:12.583Z,77.04
2023-01-13T23:25:58.963Z,76.99
2023-01-13T23:28:45.742Z,77.02
2023-01-13T23:31:32.857Z,77.22
2023-01-13T23:34:19.229Z,77.00
2023-01-13T23:37:05.589Z,76.92
2023-01-13T23:39:52.058Z,76.62
2023-01-13T23:42:38.461Z,77.09
2023-01-13T23:45:25.062Z,77.03
2023-01-13T23:48:11.198Z,77.02
2023-01-13T23:51:02.719Z,77.26
2023-01-13T23:53:50.591Z,77.07
2023-01-13T23:56:39.628Z,77.00
2023-01-13T23:59:26.451Z,77.01
